createdAt,value
2022-08-12T00:00:13.921Z,58.07
2022-08-12T00:01:14.244Z,58.07
2022-08-12T00:02:14.565Z,58.18
2022-08-12T00:03:14.979Z,58.18
2022-08-12T00:04:16.194Z,58.18
2022-08-12T00:05:15.523Z,58.18
2022-08-12T00:06:15.860Z,58.28
2022-08-12T00:07:16.179Z,58.37
2022-08-12T00:08:16.517Z,58.58
2022-08-12T00:09:16.831Z,58.58
2022-08-12T00:10:17.153Z,58.78
2022-08-12T00:11:17.483Z,58.68
2022-08-12T00:12:17.823Z,58.68
2022-08-12T00:13:18.159Z,58.87
2022-08-12T00:14:18.478Z,58.78
2022-08-12T00:15:18.798Z,59.00
2022-08-12T00:16:19.118Z,58.98
2022-08-12T00:17:19.433Z,59.20
2022-08-12T00:18:19.778Z,59.11
2022-08-12T00:19:20.108Z,58.91
2022-08-12T00:20:20.479Z,59.31
2022-08-12T00:21:20.798Z,59.20
2022-08-12T00:22:21.108Z,59.31
2022-08-12T00:23:21.451Z,59.41
2022-08-12T00:24:21.777Z,59.50
2022-08-12T00:26:00.422Z,59.70
2022-08-12T00:26:24.540Z,59.70
2022-08-12T00:27:27.339Z,59.50
2022-08-12T00:28:24.288Z,59.61
2022-08-12T00:29:23.602Z,59.70
2022-08-12T00:30:23.929Z,59.64
2022-08-12T00:31:24.257Z,59.53
2022-08-12T00:32:54.831Z,59.74
2022-08-12T00:33:26.967Z,59.64
2022-08-12T00:34:26.256Z,59.94
2022-08-12T00:35:32.755Z,59.64
2022-08-12T00:36:35.356Z,60.03
2022-08-12T00:37:28.433Z,60.03
2022-08-12T00:38:26.883Z,60.14
2022-08-12T00:39:27.124Z,60.14
2022-08-12T00:40:27.457Z,60.14
2022-08-12T00:41:27.766Z,60.03
2022-08-12T00:42:28.096Z,60.24
2022-08-12T00:43:28.440Z,60.53
2022-08-12T00:44:28.769Z,60.27
2022-08-12T00:45:29.105Z,60.57
2022-08-12T00:46:29.425Z,60.57
2022-08-12T00:47:29.747Z,60.57
2022-08-12T00:48:30.087Z,60.77
2022-08-12T00:49:30.408Z,60.86
2022-08-12T00:50:30.748Z,60.57
2022-08-12T00:51:31.083Z,60.86
2022-08-12T00:52:31.448Z,60.86
2022-08-12T00:53:31.785Z,60.86
2022-08-12T00:54:32.233Z,61.07
2022-08-12T00:55:32.460Z,61.17
2022-08-12T00:56:32.804Z,60.57
2022-08-12T00:57:33.146Z,60.77
2022-08-12T00:58:33.489Z,61.17
2022-08-12T00:59:33.847Z,60.97
2022-08-12T01:00:34.162Z,61.07
2022-08-12T01:02:11.364Z,61.27
2022-08-12T01:02:35.794Z,61.27
2022-08-12T01:03:35.140Z,61.27
2022-08-12T01:04:35.471Z,61.17
2022-08-12T01:05:35.810Z,61.17
2022-08-12T01:06:36.133Z,60.97
2022-08-12T01:07:36.468Z,61.07
2022-08-12T01:08:36.812Z,61.36
2022-08-12T01:09:37.147Z,61.70
2022-08-12T01:10:37.482Z,61.80
2022-08-12T01:11:37.822Z,61.30
2022-08-12T01:12:38.296Z,61.70
2022-08-12T01:13:38.544Z,61.50
2022-08-12T01:14:38.881Z,61.50
2022-08-12T01:15:39.242Z,61.80
2022-08-12T01:16:39.570Z,61.80
2022-08-12T01:17:39.894Z,62.00
2022-08-12T01:18:40.245Z,61.80
2022-08-12T01:19:40.574Z,61.90
2022-08-12T01:20:40.915Z,62.10
2022-08-12T01:21:41.264Z,62.10
2022-08-12T01:22:41.700Z,62.10
2022-08-12T01:23:41.933Z,62.10
2022-08-12T01:24:42.265Z,62.43
2022-08-12T01:25:55.961Z,62.23
2022-08-12T01:26:43.999Z,62.13
2022-08-12T01:27:43.323Z,62.33
2022-08-12T01:28:43.673Z,62.43
2022-08-12T01:29:44.067Z,62.33
2022-08-12T01:30:44.402Z,62.73
2022-08-12T01:31:44.729Z,62.63
2022-08-12T01:32:45.072Z,62.33
2022-08-12T01:33:45.432Z,62.53
2022-08-12T01:34:45.762Z,62.63
2022-08-12T01:35:46.102Z,62.13
2022-08-12T01:36:47.504Z,62.43
2022-08-12T01:37:46.826Z,62.03
2022-08-12T01:38:47.181Z,62.63
2022-08-12T01:40:34.489Z,62.83
2022-08-12T01:40:48.979Z,62.63
2022-08-12T01:41:53.558Z,62.63
2022-08-12T01:42:49.680Z,62.53
2022-08-12T01:43:49.063Z,62.93
2022-08-12T01:44:49.421Z,62.93
2022-08-12T01:45:52.437Z,62.63
2022-08-12T01:46:50.138Z,62.93
2022-08-12T01:47:50.486Z,62.43
2022-08-12T01:48:50.837Z,62.83
2022-08-12T01:49:51.171Z,62.56
2022-08-12T01:50:51.532Z,62.76
2022-08-12T01:52:20.574Z,63.06
2022-08-12T01:52:53.304Z,63.06
2022-08-12T01:53:52.663Z,63.26
2022-08-12T01:54:52.997Z,63.06
2022-08-12T01:55:53.340Z,62.76
2022-08-12T01:56:53.681Z,62.96
2022-08-12T01:57:57.853Z,62.96
2022-08-12T01:58:55.443Z,63.06
2022-08-12T01:59:54.775Z,62.96
2022-08-12T02:00:56.208Z,62.96
2022-08-12T02:01:55.497Z,63.17
2022-08-12T02:02:55.810Z,63.17
2022-08-12T02:03:56.173Z,62.86
2022-08-12T02:04:56.509Z,63.36
2022-08-12T02:05:56.869Z,63.19
2022-08-12T02:06:57.198Z,63.19
2022-08-12T02:07:57.539Z,63.59
2022-08-12T02:08:57.894Z,63.70
2022-08-12T02:09:58.252Z,63.49
2022-08-12T02:10:58.591Z,63.59
2022-08-12T02:11:59.003Z,63.17
2022-08-12T02:12:59.314Z,62.96
2022-08-12T02:13:59.702Z,63.17
2022-08-12T02:15:00.040Z,62.96
2022-08-12T02:16:00.377Z,62.76
2022-08-12T02:17:00.742Z,62.59
2022-08-12T02:18:01.089Z,63.06
2022-08-12T02:19:01.443Z,62.89
2022-08-12T02:20:01.798Z,62.79
2022-08-12T02:21:02.128Z,62.69
2022-08-12T02:22:02.796Z,62.59
2022-08-12T02:23:02.779Z,62.69
2022-08-12T02:24:03.480Z,62.89
2022-08-12T02:25:03.486Z,62.99
2022-08-12T02:26:03.827Z,62.79
2022-08-12T02:27:04.162Z,62.89
2022-08-12T02:28:06.068Z,63.19
2022-08-12T02:29:04.907Z,63.09
2022-08-12T02:30:05.248Z,63.39
2022-08-12T02:31:05.585Z,63.22
2022-08-12T02:32:05.925Z,63.70
2022-08-12T02:33:06.263Z,63.32
2022-08-12T02:34:06.648Z,63.73
2022-08-12T02:35:06.976Z,63.22
2022-08-12T02:36:07.324Z,63.62
2022-08-12T02:37:07.662Z,63.42
2022-08-12T02:38:07.998Z,63.53
2022-08-12T02:39:08.336Z,63.12
2022-08-12T02:40:08.867Z,63.22
2022-08-12T02:41:09.047Z,63.12
2022-08-12T02:42:09.396Z,62.92
2022-08-12T02:43:09.735Z,63.22
2022-08-12T02:44:10.101Z,63.22
2022-08-12T02:45:10.446Z,62.92
2022-08-12T02:46:14.446Z,63.02
2022-08-12T02:47:58.365Z,63.12
2022-08-12T02:48:12.546Z,62.82
2022-08-12T02:49:12.608Z,63.12
2022-08-12T02:50:12.255Z,63.02
2022-08-12T02:51:12.601Z,62.82
2022-08-12T02:52:12.945Z,63.12
2022-08-12T02:53:13.280Z,63.12
2022-08-12T02:54:13.668Z,63.22
2022-08-12T02:55:34.556Z,63.22
2022-08-12T02:56:15.401Z,63.22
2022-08-12T02:57:14.762Z,63.12
2022-08-12T02:58:15.119Z,63.32
2022-08-12T02:59:15.481Z,63.22
2022-08-12T03:00:15.828Z,63.22
2022-08-12T03:01:16.193Z,63.22
2022-08-12T03:02:16.509Z,63.12
2022-08-12T03:03:16.853Z,62.82
2022-08-12T03:04:20.729Z,63.12
2022-08-12T03:05:17.547Z,63.22
2022-08-12T03:06:17.956Z,63.12
2022-08-12T03:07:18.286Z,63.42
2022-08-12T03:08:24.836Z,63.42
2022-08-12T03:09:20.025Z,62.82
2022-08-12T03:10:26.050Z,63.02
2022-08-12T03:11:20.775Z,63.02
2022-08-12T03:12:20.327Z,62.92
2022-08-12T03:13:20.476Z,63.35
2022-08-12T03:14:20.847Z,63.05
2022-08-12T03:15:22.040Z,62.92
2022-08-12T03:16:21.547Z,62.62
2022-08-12T03:17:21.890Z,63.42
2022-08-12T03:18:24.970Z,62.92
2022-08-12T03:19:23.594Z,63.25
2022-08-12T03:20:28.020Z,62.75
2022-08-12T03:21:53.072Z,63.45
2022-08-12T03:22:24.723Z,63.25
2022-08-12T03:23:30.045Z,63.15
2022-08-12T03:24:25.455Z,63.15
2022-08-12T03:25:24.798Z,63.05
2022-08-12T03:26:25.142Z,63.05
2022-08-12T03:27:25.474Z,63.02
2022-08-12T03:28:25.812Z,63.35
2022-08-12T03:29:26.164Z,62.95
2022-08-12T03:30:26.526Z,62.72
2022-08-12T03:31:26.867Z,62.85
2022-08-12T03:32:36.062Z,63.15
2022-08-12T03:33:28.605Z,62.75
2022-08-12T03:34:27.954Z,63.15
2022-08-12T03:35:39.927Z,63.15
2022-08-12T03:36:29.707Z,63.25
2022-08-12T03:37:29.036Z,63.25
2022-08-12T03:38:29.371Z,63.25
2022-08-12T03:39:36.072Z,63.15
2022-08-12T03:40:31.022Z,63.45
2022-08-12T03:41:37.530Z,63.05
2022-08-12T03:42:31.583Z,63.65
2022-08-12T03:43:31.025Z,63.65
2022-08-12T03:44:34.268Z,63.76
2022-08-12T03:45:31.695Z,63.65
2022-08-12T03:46:32.040Z,63.65
2022-08-12T03:47:32.378Z,63.68
2022-08-12T03:48:32.714Z,63.28
2022-08-12T03:49:33.071Z,63.79
2022-08-12T03:50:33.402Z,64.29
2022-08-12T03:51:33.738Z,63.99
2022-08-12T03:52:34.075Z,63.79
2022-08-12T03:53:34.410Z,64.09
2022-08-12T03:54:37.248Z,64.09
2022-08-12T03:55:35.090Z,64.09
2022-08-12T03:56:35.435Z,64.29
2022-08-12T03:57:35.781Z,64.59
2022-08-12T03:58:36.128Z,65.09
2022-08-12T03:59:36.481Z,64.39
2022-08-12T04:00:36.885Z,64.49
2022-08-12T04:01:40.909Z,64.39
2022-08-12T04:02:37.547Z,64.39
2022-08-12T04:03:37.890Z,63.99
2022-08-12T04:04:38.241Z,64.39
2022-08-12T04:05:56.227Z,64.79
2022-08-12T04:06:40.035Z,64.39
2022-08-12T04:07:39.386Z,64.09
2022-08-12T04:08:40.801Z,64.39
2022-08-12T04:09:40.149Z,63.68
2022-08-12T04:10:40.493Z,64.39
2022-08-12T04:11:46.795Z,63.79
2022-08-12T04:12:42.315Z,63.76
2022-08-12T04:13:41.565Z,63.15
2022-08-12T04:14:41.929Z,62.95
2022-08-12T04:15:42.282Z,63.05
2022-08-12T04:16:42.626Z,62.65
2022-08-12T04:18:07.446Z,63.25
2022-08-12T04:18:44.389Z,63.05
2022-08-12T04:19:43.735Z,62.24
2022-08-12T04:20:44.070Z,62.75
2022-08-12T04:22:01.347Z,62.15
2022-08-12T04:22:45.822Z,62.35
2022-08-12T04:23:48.516Z,62.35
2022-08-12T04:24:47.701Z,62.35
2022-08-12T04:25:46.759Z,62.05
2022-08-12T04:26:46.080Z,63.25
2022-08-12T04:27:46.425Z,62.95
2022-08-12T04:28:46.759Z,62.75
2022-08-12T04:30:29.991Z,61.94
2022-08-12T04:30:48.526Z,62.95
2022-08-12T04:31:47.854Z,62.95
2022-08-12T04:32:48.520Z,62.95
2022-08-12T04:33:48.564Z,63.05
2022-08-12T04:34:48.917Z,62.45
2022-08-12T04:35:49.252Z,62.65
2022-08-12T04:36:49.599Z,62.62
2022-08-12T04:37:57.948Z,61.91
2022-08-12T04:38:51.341Z,62.12
2022-08-12T04:39:50.739Z,62.22
2022-08-12T04:40:51.078Z,62.22
2022-08-12T04:41:57.544Z,61.91
2022-08-12T04:42:52.827Z,61.61
2022-08-12T04:44:00.854Z,61.41
2022-08-12T04:44:53.571Z,61.82
2022-08-12T04:45:52.899Z,61.41
2022-08-12T04:46:53.252Z,61.51
2022-08-12T04:47:53.595Z,61.41
2022-08-12T04:48:53.936Z,61.91
2022-08-12T04:49:54.288Z,61.31
2022-08-12T04:50:54.638Z,60.61
2022-08-12T04:51:58.793Z,61.31
2022-08-12T04:52:55.370Z,61.49
2022-08-12T04:53:55.711Z,60.78
2022-08-12T04:54:56.078Z,60.48
2022-08-12T04:55:56.418Z,60.98
2022-08-12T04:57:03.140Z,61.38
2022-08-12T04:57:58.151Z,61.18
2022-08-12T04:58:57.487Z,60.78
2022-08-12T04:59:57.867Z,60.48
2022-08-12T05:00:58.205Z,60.38
2022-08-12T05:01:58.556Z,60.35
2022-08-12T05:02:58.997Z,60.45
2022-08-12T05:03:59.286Z,60.05
2022-08-12T05:05:00.751Z,60.05
2022-08-12T05:06:00.038Z,60.65
2022-08-12T05:07:00.353Z,59.95
2022-08-12T05:08:00.694Z,59.85
2022-08-12T05:09:01.223Z,60.05
2022-08-12T05:10:02.537Z,59.45
2022-08-12T05:11:01.649Z,59.42
2022-08-12T05:12:01.985Z,60.32
2022-08-12T05:13:02.318Z,60.52
2022-08-12T05:14:02.651Z,60.12
2022-08-12T05:15:02.995Z,59.52
2022-08-12T05:16:09.256Z,59.01
2022-08-12T05:17:04.675Z,59.29
2022-08-12T05:18:16.793Z,59.09
2022-08-12T05:19:05.437Z,59.49
2022-08-12T05:20:05.856Z,58.99
2022-08-12T05:21:05.190Z,58.99
2022-08-12T05:22:05.524Z,59.39
2022-08-12T05:23:12.213Z,58.89
2022-08-12T05:24:07.255Z,58.99
2022-08-12T05:25:06.604Z,58.99
2022-08-12T05:26:06.907Z,58.89
2022-08-12T05:27:07.235Z,58.36
2022-08-12T05:28:07.575Z,57.96
2022-08-12T05:30:08.128Z,58.96
2022-08-12T05:30:09.477Z,58.06
2022-08-12T05:31:08.695Z,57.35
2022-08-12T05:32:09.039Z,57.66
2022-08-12T05:33:09.405Z,58.26
2022-08-12T05:34:09.737Z,57.96
2022-08-12T05:35:10.114Z,57.56
2022-08-12T05:36:10.470Z,57.46
2022-08-12T05:37:10.800Z,57.56
2022-08-12T05:38:11.141Z,58.06
2022-08-12T05:39:11.582Z,58.33
2022-08-12T05:40:11.905Z,57.83
2022-08-12T05:41:12.205Z,57.33
2022-08-12T05:42:12.516Z,57.63
2022-08-12T05:43:12.845Z,57.53
2022-08-12T05:44:13.175Z,56.83
2022-08-12T05:45:13.520Z,58.61
2022-08-12T05:46:13.850Z,57.20
2022-08-12T05:47:14.176Z,58.81
2022-08-12T05:48:14.497Z,56.60
2022-08-12T05:49:14.815Z,57.10
2022-08-12T05:50:15.167Z,56.80
2022-08-12T05:51:15.486Z,56.48
2022-08-12T05:52:15.818Z,57.07
2022-08-12T05:53:16.140Z,56.27
2022-08-12T05:54:16.463Z,55.87
2022-08-12T05:55:16.803Z,55.74
2022-08-12T05:56:17.127Z,56.15
2022-08-12T05:57:17.445Z,55.65
2022-08-12T05:58:17.784Z,56.05
2022-08-12T05:59:18.114Z,55.05
2022-08-12T06:00:18.455Z,55.82
2022-08-12T06:02:08.925Z,55.52
2022-08-12T06:02:20.188Z,54.92
2022-08-12T06:03:19.902Z,54.72
2022-08-12T06:04:19.844Z,54.32
2022-08-12T06:05:20.181Z,54.49
2022-08-12T06:06:22.349Z,55.29
2022-08-12T06:07:59.601Z,54.99
2022-08-12T06:08:22.206Z,54.86
2022-08-12T06:09:21.519Z,53.77
2022-08-12T06:10:31.566Z,54.57
2022-08-12T06:11:23.143Z,52.74
2022-08-12T06:12:22.453Z,53.34
2022-08-12T06:13:28.322Z,53.64
2022-08-12T06:14:25.013Z,52.62
2022-08-12T06:15:23.362Z,52.92
2022-08-12T06:16:23.688Z,52.19
2022-08-12T06:17:23.997Z,52.69
2022-08-12T06:18:29.219Z,51.50
2022-08-12T06:19:25.692Z,51.37
2022-08-12T06:20:34.367Z,52.27
2022-08-12T06:21:26.343Z,50.15
2022-08-12T06:22:25.659Z,50.05
2022-08-12T06:23:25.977Z,49.73
2022-08-12T06:24:26.293Z,49.73
2022-08-12T06:25:26.641Z,49.83
2022-08-12T06:26:26.945Z,49.83
2022-08-12T06:27:27.251Z,49.51
2022-08-12T06:28:27.558Z,50.40
2022-08-12T06:30:06.819Z,48.88
2022-08-12T06:30:36.834Z,48.08
2022-08-12T06:31:29.541Z,48.86
2022-08-12T06:32:28.848Z,49.36
2022-08-12T06:33:55.280Z,47.54
2022-08-12T06:35:26.916Z,47.25
2022-08-12T06:35:48.710Z,47.64
2022-08-12T06:36:33.397Z,47.02
2022-08-12T06:37:30.565Z,46.20
2022-08-12T06:38:30.885Z,47.30
2022-08-12T06:39:31.293Z,46.80
2022-08-12T06:40:31.523Z,45.81
2022-08-12T06:41:31.840Z,45.68
2022-08-12T06:42:33.557Z,45.29
2022-08-12T06:44:04.599Z,45.37
2022-08-12T06:44:33.845Z,44.75
2022-08-12T06:45:45.492Z,44.35
2022-08-12T06:46:34.432Z,44.45
2022-08-12T06:47:33.737Z,44.63
2022-08-12T06:48:34.029Z,43.84
2022-08-12T06:49:34.352Z,43.89
2022-08-12T06:50:39.500Z,44.17
2022-08-12T06:51:35.914Z,43.28
2022-08-12T06:52:35.219Z,42.58
2022-08-12T06:53:35.515Z,41.87
2022-08-12T06:54:35.844Z,42.05
2022-08-12T06:55:36.152Z,41.85
2022-08-12T06:58:06.891Z,41.63
2022-08-12T06:58:38.064Z,41.31
2022-08-12T06:59:37.352Z,41.69
2022-08-12T07:00:37.698Z,39.50
2022-08-12T07:01:37.895Z,40.09
2022-08-12T07:02:38.308Z,40.47
2022-08-12T07:03:38.531Z,39.65
2022-08-12T07:04:39.477Z,39.73
2022-08-12T07:05:39.172Z,38.77
2022-08-12T07:06:39.486Z,38.26
2022-08-12T07:07:39.768Z,38.06
2022-08-12T07:08:40.067Z,38.18
2022-08-12T07:10:04.087Z,38.45
2022-08-12T07:10:41.598Z,37.76
2022-08-12T07:11:40.872Z,38.26
2022-08-12T07:12:42.410Z,38.34
2022-08-12T07:14:02.651Z,37.14
2022-08-12T07:14:45.753Z,38.79
2022-08-12T07:15:42.954Z,36.23
2022-08-12T07:16:42.256Z,36.92
2022-08-12T07:17:42.527Z,36.82
2022-08-12T07:18:42.809Z,38.22
2022-08-12T07:19:45.428Z,37.22
2022-08-12T07:20:52.669Z,37.12
2022-08-12T07:21:57.936Z,36.32
2022-08-12T07:22:44.905Z,36.23
2022-08-12T07:23:44.198Z,36.74
2022-08-12T07:24:44.470Z,36.84
2022-08-12T07:25:44.767Z,36.45
2022-08-12T07:26:45.057Z,36.72
2022-08-12T07:27:45.332Z,36.43
2022-08-12T07:28:45.609Z,35.72
2022-08-12T07:30:04.373Z,35.21
2022-08-12T07:30:47.244Z,35.90
2022-08-12T07:31:46.523Z,35.71
2022-08-12T07:32:46.795Z,36.08
2022-08-12T07:33:47.069Z,35.77
2022-08-12T07:34:47.392Z,35.85
2022-08-12T07:35:47.586Z,34.28
2022-08-12T07:36:47.859Z,33.89
2022-08-12T07:37:48.134Z,34.77
2022-08-12T07:38:48.416Z,34.08
2022-08-12T07:39:50.670Z,34.10
2022-08-12T07:40:49.923Z,34.30
2022-08-12T07:41:49.177Z,34.61
2022-08-12T07:42:49.456Z,34.80
2022-08-12T07:43:49.713Z,35.16
2022-08-12T07:44:51.706Z,35.52
2022-08-12T07:45:50.224Z,33.64
2022-08-12T07:46:50.495Z,33.62
2022-08-12T07:47:50.747Z,33.65
2022-08-12T07:48:50.996Z,34.25
2022-08-12T07:50:05.810Z,33.65
2022-08-12T07:50:52.609Z,34.28
2022-08-12T07:51:51.852Z,35.08
2022-08-12T07:52:52.152Z,35.18
2022-08-12T07:54:00.210Z,35.10
2022-08-12T07:54:53.598Z,34.89
2022-08-12T07:55:52.875Z,34.87
2022-08-12T07:56:53.137Z,34.87
2022-08-12T07:57:53.415Z,35.16
2022-08-12T07:58:53.645Z,34.06
2022-08-12T07:59:55.839Z,34.44
2022-08-12T08:00:54.141Z,34.58
2022-08-12T08:01:54.434Z,34.59
2022-08-12T08:02:54.685Z,34.61
2022-08-12T08:03:54.926Z,35.18
2022-08-12T08:04:55.190Z,34.89
2022-08-12T08:05:55.462Z,34.87
2022-08-12T08:06:55.726Z,34.16
2022-08-12T08:07:55.977Z,33.75
2022-08-12T08:08:56.253Z,33.84
2022-08-12T08:09:59.173Z,32.94
2022-08-12T08:11:00.961Z,33.05
2022-08-12T08:11:58.039Z,33.46
2022-08-12T08:12:57.288Z,34.06
2022-08-12T08:13:57.539Z,33.97
2022-08-12T08:14:57.789Z,33.97
2022-08-12T08:16:05.081Z,34.49
2022-08-12T08:16:59.253Z,34.39
2022-08-12T08:17:58.488Z,34.69
2022-08-12T08:18:58.736Z,33.92
2022-08-12T08:20:03.979Z,34.31
2022-08-12T08:21:00.207Z,34.20
2022-08-12T08:21:59.458Z,33.70
2022-08-12T08:22:59.709Z,34.30
2022-08-12T08:24:05.129Z,33.20
2022-08-12T08:25:01.261Z,33.77
2022-08-12T08:26:00.508Z,32.66
2022-08-12T08:27:00.759Z,32.45
2022-08-12T08:28:00.994Z,32.25
2022-08-12T08:29:01.236Z,31.96
2022-08-12T08:30:01.475Z,32.46
2022-08-12T08:31:01.729Z,32.46
2022-08-12T08:32:01.987Z,32.57
2022-08-12T08:33:02.218Z,32.95
2022-08-12T08:34:47.197Z,32.76
2022-08-12T08:35:03.621Z,32.06
2022-08-12T08:36:02.929Z,31.77
2022-08-12T08:37:07.533Z,32.35
2022-08-12T08:38:03.332Z,32.38
2022-08-12T08:39:03.555Z,32.46
2022-08-12T08:40:03.789Z,32.45
2022-08-12T08:41:04.069Z,32.64
2022-08-12T08:42:15.824Z,32.23
2022-08-12T08:43:05.460Z,31.48
2022-08-12T08:44:04.672Z,32.68
2022-08-12T08:45:04.889Z,31.89
2022-08-12T08:46:05.122Z,32.28
2022-08-12T08:47:05.339Z,31.68
2022-08-12T08:48:05.561Z,31.47
2022-08-12T08:49:05.823Z,31.14
2022-08-12T08:50:05.979Z,31.47
2022-08-12T08:51:06.220Z,31.96
2022-08-12T08:52:06.448Z,31.48
2022-08-12T08:53:06.661Z,31.89
2022-08-12T08:54:06.910Z,31.48
2022-08-12T08:55:07.126Z,31.38
2022-08-12T08:56:07.340Z,32.78
2022-08-12T08:57:07.559Z,32.09
2022-08-12T08:58:07.784Z,32.01
2022-08-12T08:59:08.000Z,32.20
2022-08-12T09:00:08.204Z,32.81
2022-08-12T09:01:08.483Z,32.59
2022-08-12T09:02:08.810Z,33.26
2022-08-12T09:05:08.205Z,34.21
2022-08-12T09:05:14.366Z,31.16
2022-08-12T09:06:10.388Z,32.12
2022-08-12T09:07:17.432Z,32.29
2022-08-12T09:09:13.343Z,31.29
2022-08-12T09:10:31.323Z,30.41
2022-08-12T09:11:11.304Z,30.07
2022-08-12T09:12:13.331Z,31.76
2022-08-12T09:13:19.289Z,31.86
2022-08-12T09:15:16.732Z,31.99
2022-08-12T09:16:12.426Z,32.50
2022-08-12T09:17:11.324Z,32.30
2022-08-12T09:18:11.531Z,31.70
2022-08-12T09:19:27.412Z,33.75
2022-08-12T09:20:15.251Z,31.79
2022-08-12T09:21:12.079Z,32.01
2022-08-12T09:22:12.271Z,32.53
2022-08-12T09:24:16.223Z,32.89
2022-08-12T09:25:25.463Z,32.09
2022-08-12T09:26:13.848Z,32.37
2022-08-12T09:27:13.055Z,32.74
2022-08-12T09:28:13.248Z,30.75
2022-08-12T09:29:13.440Z,30.94
2022-08-12T09:30:14.431Z,30.16
2022-08-12T09:32:03.336Z,30.88
2022-08-12T09:32:56.402Z,31.26
2022-08-12T09:34:24.747Z,31.04
2022-08-12T09:34:27.493Z,30.47
2022-08-12T09:35:18.577Z,30.78
2022-08-12T09:36:15.584Z,31.65
2022-08-12T09:37:19.950Z,30.67
2022-08-12T09:38:25.586Z,30.18
2022-08-12T09:40:03.554Z,31.34
2022-08-12T09:42:08.800Z,30.26
2022-08-12T09:42:09.645Z,30.16
2022-08-12T09:42:42.948Z,31.45
2022-08-12T09:43:18.713Z,30.29
2022-08-12T09:44:37.674Z,30.49
2022-08-12T09:45:18.848Z,31.94
2022-08-12T09:46:25.566Z,30.87
2022-08-12T09:47:17.180Z,30.68
2022-08-12T09:48:20.361Z,31.38
2022-08-12T09:49:16.863Z,30.57
2022-08-12T09:50:17.573Z,30.49
2022-08-12T09:51:22.539Z,30.37
2022-08-12T09:52:17.841Z,30.08
2022-08-12T09:53:17.023Z,30.07
2022-08-12T09:54:32.992Z,30.74
2022-08-12T09:56:05.459Z,29.64
2022-08-12T09:56:58.500Z,29.63
2022-08-12T09:58:45.434Z,29.71
2022-08-12T09:58:57.900Z,29.81
2022-08-12T10:00:13.465Z,30.29
2022-08-12T10:00:27.472Z,28.92
2022-08-12T10:01:23.044Z,30.38
2022-08-12T10:02:42.882Z,29.69
2022-08-12T10:03:32.108Z,29.79
2022-08-12T10:04:20.494Z,29.86
2022-08-12T10:05:20.386Z,29.25
2022-08-12T10:06:26.590Z,27.97
2022-08-12T10:07:24.870Z,28.85
2022-08-12T10:08:19.969Z,28.04
2022-08-12T10:09:19.122Z,27.47
2022-08-12T10:10:22.889Z,28.64
2022-08-12T10:11:20.854Z,28.08
2022-08-12T10:12:31.537Z,28.99
2022-08-12T10:13:35.413Z,28.72
2022-08-12T10:14:20.803Z,29.04
2022-08-12T10:16:02.002Z,30.12
2022-08-12T10:16:22.415Z,30.00
2022-08-12T10:17:20.112Z,29.02
2022-08-12T10:18:20.224Z,28.65
2022-08-12T10:19:20.321Z,28.94
2022-08-12T10:20:21.451Z,29.73
2022-08-12T10:21:20.591Z,31.00
2022-08-12T10:22:39.375Z,30.57
2022-08-12T10:23:39.330Z,28.03
2022-08-12T10:24:21.936Z,28.78
2022-08-12T10:25:21.096Z,28.29
2022-08-12T10:26:37.977Z,27.40
2022-08-12T10:27:23.256Z,28.11
2022-08-12T10:28:25.213Z,28.83
2022-08-12T10:30:11.933Z,29.21
2022-08-12T10:30:39.539Z,28.36
2022-08-12T10:31:22.898Z,29.87
2022-08-12T10:32:43.974Z,31.09
2022-08-12T10:33:23.133Z,30.50
2022-08-12T10:34:23.947Z,30.37
2022-08-12T10:35:22.400Z,30.36
2022-08-12T10:36:40.433Z,29.45
2022-08-12T10:38:34.338Z,29.63
2022-08-12T10:38:37.253Z,29.74
2022-08-12T10:40:00.955Z,29.41
2022-08-12T10:40:31.433Z,29.38
2022-08-12T10:41:56.848Z,28.09
2022-08-12T10:42:29.024Z,27.51
2022-08-12T10:43:24.417Z,28.47
2022-08-12T10:44:23.574Z,28.94
2022-08-12T10:45:23.862Z,27.89
2022-08-12T10:46:23.860Z,28.11
2022-08-12T10:47:26.062Z,29.02
2022-08-12T10:48:27.121Z,29.81
2022-08-12T10:50:05.583Z,28.65
2022-08-12T10:50:35.813Z,29.64
2022-08-12T10:52:03.057Z,30.32
2022-08-12T10:52:34.109Z,28.92
2022-08-12T10:53:45.884Z,28.03
2022-08-12T10:54:26.908Z,26.82
2022-08-12T10:55:26.162Z,27.61
2022-08-12T10:56:25.230Z,27.72
2022-08-12T10:58:13.349Z,28.59
2022-08-12T10:58:27.944Z,27.41
2022-08-12T11:00:29.713Z,28.40
2022-08-12T11:00:31.892Z,27.70
2022-08-12T11:04:18.247Z,27.22
2022-08-12T11:04:24.601Z,27.51
2022-08-12T11:04:26.007Z,27.20
2022-08-12T11:04:39.442Z,27.62
2022-08-12T11:07:08.937Z,29.07
2022-08-12T11:07:09.656Z,28.05
2022-08-12T11:08:37.758Z,30.81
2022-08-12T11:08:37.849Z,30.60
2022-08-12T11:09:55.912Z,31.71
2022-08-12T11:10:28.021Z,32.40
2022-08-12T11:12:36.064Z,30.78
2022-08-12T11:12:56.258Z,30.54
2022-08-12T11:13:46.206Z,29.50
2022-08-12T11:14:49.951Z,27.81
2022-08-12T11:16:02.791Z,29.66
2022-08-12T11:16:28.941Z,27.47
2022-08-12T11:17:52.344Z,25.97
2022-08-12T11:18:29.242Z,26.65
2022-08-12T11:19:28.458Z,26.25
2022-08-12T11:20:28.992Z,26.46
2022-08-12T11:21:56.094Z,26.36
2022-08-12T11:22:29.969Z,27.11
2022-08-12T11:23:36.871Z,27.08
2022-08-12T11:24:32.296Z,28.91
2022-08-12T11:25:53.769Z,25.08
2022-08-12T11:26:30.363Z,26.78
2022-08-12T11:27:29.678Z,26.62
2022-08-12T11:28:33.281Z,28.50
2022-08-12T11:30:02.597Z,27.62
2022-08-12T11:30:32.121Z,28.50
2022-08-12T11:31:30.178Z,28.79
2022-08-12T11:32:31.312Z,28.39
2022-08-12T11:34:06.822Z,29.14
2022-08-12T11:34:52.396Z,27.28
2022-08-12T11:35:31.678Z,27.45
2022-08-12T11:36:30.975Z,27.26
2022-08-12T11:37:31.054Z,27.26
2022-08-12T11:38:32.188Z,27.04
2022-08-12T11:40:32.477Z,25.47
2022-08-12T11:41:32.829Z,24.77
2022-08-12T11:42:32.449Z,24.57
2022-08-12T11:43:32.019Z,25.57
2022-08-12T11:44:36.749Z,26.02
2022-08-12T11:45:38.756Z,26.62
2022-08-12T11:46:33.364Z,26.42
2022-08-12T11:47:32.520Z,28.00
2022-08-12T11:48:51.419Z,26.90
2022-08-12T11:49:33.820Z,26.75
2022-08-12T11:50:33.082Z,26.15
2022-08-12T11:51:36.477Z,25.95
2022-08-12T11:52:55.012Z,25.14
2022-08-12T11:53:57.641Z,25.34
2022-08-12T11:54:34.514Z,25.52
2022-08-12T11:55:33.669Z,25.60
2022-08-12T11:56:38.510Z,25.01
2022-08-12T11:58:20.655Z,25.56
2022-08-12T12:00:31.854Z,24.90
2022-08-12T12:02:02.503Z,24.55
2022-08-12T12:02:35.500Z,24.95
2022-08-12T12:03:43.886Z,25.35
2022-08-12T12:04:35.755Z,25.15
2022-08-12T12:05:41.533Z,25.74
2022-08-12T12:06:36.023Z,24.87
2022-08-12T12:08:38.950Z,25.84
2022-08-12T12:08:42.683Z,25.87
2022-08-12T12:09:52.878Z,26.07
2022-08-12T12:10:36.531Z,26.17
2022-08-12T12:11:48.676Z,26.47
2022-08-12T12:12:36.890Z,26.37
2022-08-12T12:14:06.800Z,26.26
2022-08-12T12:14:38.259Z,25.35
2022-08-12T12:15:40.868Z,24.95
2022-08-12T12:16:39.860Z,25.73
2022-08-12T12:17:38.334Z,25.60
2022-08-12T12:18:36.811Z,25.73
2022-08-12T12:19:39.733Z,26.25
2022-08-12T12:20:38.129Z,26.29
2022-08-12T12:21:48.636Z,26.39
2022-08-12T12:22:38.437Z,27.04
2022-08-12T12:23:37.625Z,26.03
2022-08-12T12:24:37.805Z,26.62
2022-08-12T12:26:06.917Z,26.57
2022-08-12T12:26:39.135Z,27.28
2022-08-12T12:27:58.481Z,27.06
2022-08-12T12:28:39.857Z,25.90
2022-08-12T12:30:19.682Z,26.18
2022-08-12T12:30:39.767Z,25.86
2022-08-12T12:32:09.940Z,25.64
2022-08-12T12:32:40.259Z,25.71
2022-08-12T12:33:56.723Z,24.62
2022-08-12T12:34:40.343Z,24.51
2022-08-12T12:36:18.355Z,24.40
2022-08-12T12:36:40.683Z,23.93
2022-08-12T12:38:03.527Z,23.94
2022-08-12T12:38:40.976Z,23.93
2022-08-12T12:39:55.194Z,25.70
2022-08-12T12:40:41.269Z,25.13
2022-08-12T12:42:41.829Z,24.56
2022-08-12T12:42:54.516Z,24.88
2022-08-12T12:43:43.361Z,25.96
2022-08-12T12:44:51.023Z,25.08
2022-08-12T12:45:44.684Z,25.58
2022-08-12T12:46:41.197Z,25.46
2022-08-12T12:47:41.348Z,24.85
2022-08-12T12:48:44.514Z,24.82
2022-08-12T12:49:41.698Z,23.92
2022-08-12T12:50:42.734Z,24.87
2022-08-12T12:51:48.634Z,23.76
2022-08-12T12:52:43.235Z,24.80
2022-08-12T12:54:07.839Z,26.92
2022-08-12T12:54:43.550Z,27.86
2022-08-12T12:55:42.687Z,28.16
2022-08-12T12:56:43.198Z,28.58
2022-08-12T12:57:59.743Z,30.19
2022-08-12T12:58:44.254Z,30.49
2022-08-12T12:59:56.094Z,29.69
2022-08-12T13:00:50.977Z,28.96
2022-08-12T13:01:45.152Z,28.54
2022-08-12T13:02:45.239Z,27.22
2022-08-12T13:03:49.420Z,26.78